Marble Cliff, Ohio
Current Conditions -  °F | °C
As of 11:53 AM on Saturday 25 Oct 2014 (Local Time) from KOSU Reporting Station
Few Clouds Few Clouds  
Wind Chill: 63°   Ceiling: Unl
Heat Index: 63°   Visibility: 8mi
Dew Point: 51°   Wind: 10mph
Humidity: 65%   Direction: 230°SW
Pressure: 29.92"   Gusts: NA
Location:  39.987°N, 83.0425°W
Report Text: KOSU 251553Z 23009KT 8SM FEW043 17/11 A2992 RMK AO2 SLP131 T01720106
Loading
Personal Weather Stations






























Interactive Weather Map
Tropical Storm Tracking
New forecast layout! Learn more

10-Day Weather Forecast

Advertisements
Track Severe Weather on mobile